sensor_id;sensor_type;location;lat;lon;timestamp;P1;durP1;ratioP1;P2;durP2;ratioP2
52674;SDS011;38569;52.722;6.440;2023-08-08T00:00:05;14.52;;;4.65;;
52674;SDS011;38569;52.722;6.440;2023-08-08T00:02:31;8.32;;;4.85;;
52674;SDS011;38569;52.722;6.440;2023-08-08T00:04:57;8.70;;;5.35;;
52674;SDS011;38569;52.722;6.440;2023-08-08T00:07:22;8.30;;;4.45;;
52674;SDS011;38569;52.722;6.440;2023-08-08T00:09:48;8.10;;;4.50;;
52674;SDS011;38569;52.722;6.440;2023-08-08T00:12:14;7.30;;;4.38;;
52674;SDS011;38569;52.722;6.440;2023-08-08T00:14:40;7.88;;;3.90;;
52674;SDS011;38569;52.722;6.440;2023-08-08T00:17:05;8.27;;;4.78;;
52674;SDS011;38569;52.722;6.440;2023-08-08T00:19:31;10.02;;;4.82;;
52674;SDS011;38569;52.722;6.440;2023-08-08T00:21:57;7.32;;;4.82;;
52674;SDS011;38569;52.722;6.440;2023-08-08T00:24:22;7.88;;;4.72;;
52674;SDS011;38569;52.722;6.440;2023-08-08T00:26:48;9.32;;;5.00;;
52674;SDS011;38569;52.722;6.440;2023-08-08T00:29:14;6.82;;;4.57;;
52674;SDS011;38569;52.722;6.440;2023-08-08T00:31:40;8.18;;;4.65;;
52674;SDS011;38569;52.722;6.440;2023-08-08T00:34:05;10.15;;;4.22;;
52674;SDS011;38569;52.722;6.440;2023-08-08T00:36:31;6.28;;;4.43;;
52674;SDS011;38569;52.722;6.440;2023-08-08T00:38:56;7.38;;;4.05;;
52674;SDS011;38569;52.722;6.440;2023-08-08T00:41:22;9.57;;;5.13;;
52674;SDS011;38569;52.722;6.440;2023-08-08T00:43:48;8.25;;;4.57;;
52674;SDS011;38569;52.722;6.440;2023-08-08T00:46:14;10.27;;;4.25;;
52674;SDS011;38569;52.722;6.440;2023-08-08T00:48:41;7.43;;;4.45;;
52674;SDS011;38569;52.722;6.440;2023-08-08T00:51:06;12.82;;;5.07;;
52674;SDS011;38569;52.722;6.440;2023-08-08T00:53:32;9.35;;;4.80;;
52674;SDS011;38569;52.722;6.440;2023-08-08T00:55:58;7.03;;;5.18;;
52674;SDS011;38569;52.722;6.440;2023-08-08T00:58:24;9.15;;;4.68;;
52674;SDS011;38569;52.722;6.440;2023-08-08T01:00:51;10.95;;;4.85;;
52674;SDS011;38569;52.722;6.440;2023-08-08T01:03:19;10.25;;;4.88;;
52674;SDS011;38569;52.722;6.440;2023-08-08T01:05:51;7.38;;;4.88;;
52674;SDS011;38569;52.722;6.440;2023-08-08T01:08:25;9.30;;;5.32;;
52674;SDS011;38569;52.722;6.440;2023-08-08T01:10:55;10.82;;;5.38;;
52674;SDS011;38569;52.722;6.440;2023-08-08T01:13:22;15.73;;;5.55;;
52674;SDS011;38569;52.722;6.440;2023-08-08T01:15:50;10.45;;;4.95;;
52674;SDS011;38569;52.722;6.440;2023-08-08T01:18:18;7.68;;;5.35;;
52674;SDS011;38569;52.722;6.440;2023-08-08T01:20:44;12.65;;;5.75;;
52674;SDS011;38569;52.722;6.440;2023-08-08T01:23:32;7.13;;;5.13;;
52674;SDS011;38569;52.722;6.440;2023-08-08T01:26:05;12.07;;;5.68;;
52674;SDS011;38569;52.722;6.440;2023-08-08T01:28:31;10.13;;;5.22;;
52674;SDS011;38569;52.722;6.440;2023-08-08T01:30:58;13.48;;;5.30;;
52674;SDS011;38569;52.722;6.440;2023-08-08T01:33:24;10.90;;;5.80;;
52674;SDS011;38569;52.722;6.440;2023-08-08T01:35:50;10.27;;;5.32;;
52674;SDS011;38569;52.722;6.440;2023-08-08T01:38:41;8.45;;;5.00;;
52674;SDS011;38569;52.722;6.440;2023-08-08T01:41:09;11.68;;;4.78;;
52674;SDS011;38569;52.722;6.440;2023-08-08T01:43:38;8.20;;;5.25;;
52674;SDS011;38569;52.722;6.440;2023-08-08T01:46:05;15.90;;;6.20;;
52674;SDS011;38569;52.722;6.440;2023-08-08T01:48:32;15.30;;;5.55;;
52674;SDS011;38569;52.722;6.440;2023-08-08T01:50:58;14.18;;;6.25;;
52674;SDS011;38569;52.722;6.440;2023-08-08T01:53:23;14.98;;;6.25;;
52674;SDS011;38569;52.722;6.440;2023-08-08T01:55:49;13.35;;;6.10;;
52674;SDS011;38569;52.722;6.440;2023-08-08T01:58:15;11.48;;;6.55;;
52674;SDS011;38569;52.722;6.440;2023-08-08T02:00:40;10.57;;;5.85;;
52674;SDS011;38569;52.722;6.440;2023-08-08T02:03:09;10.52;;;6.72;;
52674;SDS011;38569;52.722;6.440;2023-08-08T02:05:34;9.50;;;5.88;;
52674;SDS011;38569;52.722;6.440;2023-08-08T02:08:00;12.90;;;5.63;;
52674;SDS011;38569;52.722;6.440;2023-08-08T02:10:26;13.70;;;6.20;;
52674;SDS011;38569;52.722;6.440;2023-08-08T02:12:51;10.20;;;6.22;;
52674;SDS011;38569;52.722;6.440;2023-08-08T02:15:17;12.10;;;6.50;;
52674;SDS011;38569;52.722;6.440;2023-08-08T02:17:43;12.65;;;6.20;;
52674;SDS011;38569;52.722;6.440;2023-08-08T02:20:10;20.00;;;6.95;;
52674;SDS011;38569;52.722;6.440;2023-08-08T02:22:37;18.73;;;6.75;;
52674;SDS011;38569;52.722;6.440;2023-08-08T02:25:03;14.73;;;6.78;;
52674;SDS011;38569;52.722;6.440;2023-08-08T02:27:29;12.80;;;6.45;;
52674;SDS011;38569;52.722;6.440;2023-08-08T02:29:54;13.35;;;6.38;;
52674;SDS011;38569;52.722;6.440;2023-08-08T02:32:22;16.00;;;7.35;;
52674;SDS011;38569;52.722;6.440;2023-08-08T02:34:48;14.07;;;7.07;;
52674;SDS011;38569;52.722;6.440;2023-08-08T02:37:14;14.68;;;6.65;;
52674;SDS011;38569;52.722;6.440;2023-08-08T02:39:41;14.68;;;6.90;;
52674;SDS011;38569;52.722;6.440;2023-08-08T02:42:07;13.70;;;7.78;;
52674;SDS011;38569;52.722;6.440;2023-08-08T02:44:33;12.07;;;6.65;;
52674;SDS011;38569;52.722;6.440;2023-08-08T02:46:58;18.73;;;7.93;;
52674;SDS011;38569;52.722;6.440;2023-08-08T02:49:24;10.88;;;6.93;;
52674;SDS011;38569;52.722;6.440;2023-08-08T02:51:50;15.38;;;7.38;;
52674;SDS011;38569;52.722;6.440;2023-08-08T02:54:15;11.30;;;6.75;;
52674;SDS011;38569;52.722;6.440;2023-08-08T02:56:41;10.43;;;6.38;;
52674;SDS011;38569;52.722;6.440;2023-08-08T02:59:07;16.85;;;7.15;;
52674;SDS011;38569;52.722;6.440;2023-08-08T03:01:32;16.13;;;7.47;;
52674;SDS011;38569;52.722;6.440;2023-08-08T03:04:02;15.18;;;6.93;;
52674;SDS011;38569;52.722;6.440;2023-08-08T03:06:28;13.27;;;7.15;;
52674;SDS011;38569;52.722;6.440;2023-08-08T03:08:54;11.88;;;7.00;;
52674;SDS011;38569;52.722;6.440;2023-08-08T03:11:20;18.65;;;6.10;;
52674;SDS011;38569;52.722;6.440;2023-08-08T03:13:45;16.65;;;6.43;;
52674;SDS011;38569;52.722;6.440;2023-08-08T03:16:11;11.18;;;6.45;;
52674;SDS011;38569;52.722;6.440;2023-08-08T03:18:37;10.93;;;6.00;;
52674;SDS011;38569;52.722;6.440;2023-08-08T03:21:02;12.48;;;6.07;;
52674;SDS011;38569;52.722;6.440;2023-08-08T03:23:28;14.13;;;6.72;;
52674;SDS011;38569;52.722;6.440;2023-08-08T03:25:54;13.45;;;6.50;;
52674;SDS011;38569;52.722;6.440;2023-08-08T03:28:19;13.98;;;6.32;;
52674;SDS011;38569;52.722;6.440;2023-08-08T03:30:45;12.27;;;5.65;;
52674;SDS011;38569;52.722;6.440;2023-08-08T03:33:11;13.55;;;6.38;;
52674;SDS011;38569;52.722;6.440;2023-08-08T03:35:37;11.23;;;5.22;;
52674;SDS011;38569;52.722;6.440;2023-08-08T03:38:02;8.63;;;5.75;;
52674;SDS011;38569;52.722;6.440;2023-08-08T03:40:28;14.40;;;5.75;;
52674;SDS011;38569;52.722;6.440;2023-08-08T03:42:54;8.85;;;4.85;;
52674;SDS011;38569;52.722;6.440;2023-08-08T03:45:19;9.73;;;4.32;;
52674;SDS011;38569;52.722;6.440;2023-08-08T03:47:45;13.82;;;5.00;;
52674;SDS011;38569;52.722;6.440;2023-08-08T03:50:11;14.82;;;4.60;;
52674;SDS011;38569;52.722;6.440;2023-08-08T03:52:36;15.68;;;4.60;;
52674;SDS011;38569;52.722;6.440;2023-08-08T03:55:03;11.23;;;4.80;;
52674;SDS011;38569;52.722;6.440;2023-08-08T03:57:29;10.98;;;4.38;;
52674;SDS011;38569;52.722;6.440;2023-08-08T03:59:55;11.32;;;4.68;;
52674;SDS011;38569;52.722;6.440;2023-08-08T04:02:21;8.73;;;3.45;;
52674;SDS011;38569;52.722;6.440;2023-08-08T04:04:47;10.73;;;3.83;;
52674;SDS011;38569;52.722;6.440;2023-08-08T04:07:13;11.45;;;3.97;;
52674;SDS011;38569;52.722;6.440;2023-08-08T04:09:38;7.50;;;3.55;;
52674;SDS011;38569;52.722;6.440;2023-08-08T04:12:04;10.05;;;4.47;;
52674;SDS011;38569;52.722;6.440;2023-08-08T04:14:30;11.32;;;3.80;;
52674;SDS011;38569;52.722;6.440;2023-08-08T04:16:56;10.45;;;3.55;;
52674;SDS011;38569;52.722;6.440;2023-08-08T04:19:21;9.82;;;3.55;;
52674;SDS011;38569;52.722;6.440;2023-08-08T04:21:48;7.38;;;3.30;;
52674;SDS011;38569;52.722;6.440;2023-08-08T04:24:14;18.40;;;7.05;;
52674;SDS011;38569;52.722;6.440;2023-08-08T04:26:39;11.75;;;3.38;;
52674;SDS011;38569;52.722;6.440;2023-08-08T04:29:05;9.27;;;2.88;;
52674;SDS011;38569;52.722;6.440;2023-08-08T04:31:31;12.88;;;3.10;;
52674;SDS011;38569;52.722;6.440;2023-08-08T04:33:57;7.13;;;3.15;;
52674;SDS011;38569;52.722;6.440;2023-08-08T04:36:29;12.63;;;3.15;;
52674;SDS011;38569;52.722;6.440;2023-08-08T04:38:55;7.20;;;2.55;;
52674;SDS011;38569;52.722;6.440;2023-08-08T04:41:21;8.82;;;2.80;;
52674;SDS011;38569;52.722;6.440;2023-08-08T04:43:47;12.35;;;2.60;;
52674;SDS011;38569;52.722;6.440;2023-08-08T04:46:12;7.55;;;2.60;;
52674;SDS011;38569;52.722;6.440;2023-08-08T04:48:38;8.23;;;2.85;;
52674;SDS011;38569;52.722;6.440;2023-08-08T04:51:05;10.70;;;3.10;;
52674;SDS011;38569;52.722;6.440;2023-08-08T04:53:31;7.70;;;2.40;;
52674;SDS011;38569;52.722;6.440;2023-08-08T04:55:57;9.02;;;2.38;;
52674;SDS011;38569;52.722;6.440;2023-08-08T04:58:23;13.73;;;3.05;;
52674;SDS011;38569;52.722;6.440;2023-08-08T05:00:49;7.55;;;2.15;;
52674;SDS011;38569;52.722;6.440;2023-08-08T05:03:16;9.82;;;2.35;;
52674;SDS011;38569;52.722;6.440;2023-08-08T05:05:42;5.70;;;1.98;;
52674;SDS011;38569;52.722;6.440;2023-08-08T05:08:10;6.32;;;2.08;;
52674;SDS011;38569;52.722;6.440;2023-08-08T05:10:36;10.50;;;2.50;;
52674;SDS011;38569;52.722;6.440;2023-08-08T05:13:02;9.65;;;2.17;;
52674;SDS011;38569;52.722;6.440;2023-08-08T05:15:28;6.70;;;2.58;;
52674;SDS011;38569;52.722;6.440;2023-08-08T05:17:54;5.45;;;2.08;;
52674;SDS011;38569;52.722;6.440;2023-08-08T05:20:20;7.30;;;1.90;;
52674;SDS011;38569;52.722;6.440;2023-08-08T05:22:46;5.60;;;1.98;;
52674;SDS011;38569;52.722;6.440;2023-08-08T05:25:12;5.55;;;1.90;;
52674;SDS011;38569;52.722;6.440;2023-08-08T05:27:38;10.93;;;1.90;;
52674;SDS011;38569;52.722;6.440;2023-08-08T05:30:04;6.20;;;1.90;;
52674;SDS011;38569;52.722;6.440;2023-08-08T05:32:31;8.93;;;2.20;;
52674;SDS011;38569;52.722;6.440;2023-08-08T05:34:56;6.18;;;2.00;;
52674;SDS011;38569;52.722;6.440;2023-08-08T05:37:23;11.00;;;2.22;;
52674;SDS011;38569;52.722;6.440;2023-08-08T05:39:49;8.40;;;1.90;;
52674;SDS011;38569;52.722;6.440;2023-08-08T05:42:15;9.75;;;1.90;;
52674;SDS011;38569;52.722;6.440;2023-08-08T05:44:40;7.68;;;2.08;;
52674;SDS011;38569;52.722;6.440;2023-08-08T05:47:10;6.20;;;2.28;;
52674;SDS011;38569;52.722;6.440;2023-08-08T05:49:35;10.57;;;2.35;;
52674;SDS011;38569;52.722;6.440;2023-08-08T05:52:01;4.47;;;1.73;;
52674;SDS011;38569;52.722;6.440;2023-08-08T05:54:27;12.07;;;2.35;;
52674;SDS011;38569;52.722;6.440;2023-08-08T05:56:53;3.85;;;1.98;;
52674;SDS011;38569;52.722;6.440;2023-08-08T05:59:19;7.50;;;2.13;;
52674;SDS011;38569;52.722;6.440;2023-08-08T06:01:45;6.72;;;1.92;;
52674;SDS011;38569;52.722;6.440;2023-08-08T06:04:11;7.25;;;1.88;;
52674;SDS011;38569;52.722;6.440;2023-08-08T06:06:38;14.35;;;2.45;;
52674;SDS011;38569;52.722;6.440;2023-08-08T06:09:03;7.60;;;1.92;;
52674;SDS011;38569;52.722;6.440;2023-08-08T06:11:29;9.65;;;2.45;;
52674;SDS011;38569;52.722;6.440;2023-08-08T06:13:55;9.35;;;2.08;;
52674;SDS011;38569;52.722;6.440;2023-08-08T06:16:21;4.63;;;1.60;;
52674;SDS011;38569;52.722;6.440;2023-08-08T06:18:47;7.28;;;1.75;;
52674;SDS011;38569;52.722;6.440;2023-08-08T06:21:13;5.18;;;1.80;;
52674;SDS011;38569;52.722;6.440;2023-08-08T06:23:38;9.02;;;1.80;;
52674;SDS011;38569;52.722;6.440;2023-08-08T06:26:04;8.77;;;2.53;;
52674;SDS011;38569;52.722;6.440;2023-08-08T06:28:30;6.03;;;2.15;;
52674;SDS011;38569;52.722;6.440;2023-08-08T06:30:57;6.53;;;1.30;;
52674;SDS011;38569;52.722;6.440;2023-08-08T06:33:23;10.68;;;2.42;;
52674;SDS011;38569;52.722;6.440;2023-08-08T06:35:49;11.10;;;2.17;;
52674;SDS011;38569;52.722;6.440;2023-08-08T06:38:15;5.88;;;1.52;;
52674;SDS011;38569;52.722;6.440;2023-08-08T06:40:41;5.05;;;1.88;;
52674;SDS011;38569;52.722;6.440;2023-08-08T06:43:06;6.43;;;2.13;;
52674;SDS011;38569;52.722;6.440;2023-08-08T06:45:32;6.35;;;3.05;;
52674;SDS011;38569;52.722;6.440;2023-08-08T06:47:59;3.35;;;1.60;;
52674;SDS011;38569;52.722;6.440;2023-08-08T06:50:25;7.18;;;1.85;;
52674;SDS011;38569;52.722;6.440;2023-08-08T06:52:51;5.40;;;1.75;;
52674;SDS011;38569;52.722;6.440;2023-08-08T06:55:17;10.10;;;1.50;;
52674;SDS011;38569;52.722;6.440;2023-08-08T06:57:43;6.63;;;1.30;;
52674;SDS011;38569;52.722;6.440;2023-08-08T07:00:08;14.15;;;2.35;;
52674;SDS011;38569;52.722;6.440;2023-08-08T07:02:37;6.15;;;1.90;;
52674;SDS011;38569;52.722;6.440;2023-08-08T07:05:03;8.32;;;1.63;;
52674;SDS011;38569;52.722;6.440;2023-08-08T07:07:29;13.38;;;2.25;;
52674;SDS011;38569;52.722;6.440;2023-08-08T07:09:56;14.23;;;2.85;;
52674;SDS011;38569;52.722;6.440;2023-08-08T07:12:21;8.43;;;1.95;;
52674;SDS011;38569;52.722;6.440;2023-08-08T07:14:47;4.57;;;1.40;;
52674;SDS011;38569;52.722;6.440;2023-08-08T07:17:13;4.60;;;1.42;;
52674;SDS011;38569;52.722;6.440;2023-08-08T07:19:39;5.85;;;1.85;;
52674;SDS011;38569;52.722;6.440;2023-08-08T07:22:06;4.60;;;1.50;;
52674;SDS011;38569;52.722;6.440;2023-08-08T07:24:32;14.45;;;3.80;;
52674;SDS011;38569;52.722;6.440;2023-08-08T07:26:58;6.80;;;2.13;;
52674;SDS011;38569;52.722;6.440;2023-08-08T07:29:24;5.07;;;1.58;;
52674;SDS011;38569;52.722;6.440;2023-08-08T07:31:53;7.22;;;1.40;;
52674;SDS011;38569;52.722;6.440;2023-08-08T07:34:19;9.02;;;1.77;;
52674;SDS011;38569;52.722;6.440;2023-08-08T07:36:46;4.75;;;1.23;;
52674;SDS011;38569;52.722;6.440;2023-08-08T07:39:12;8.70;;;1.55;;
52674;SDS011;38569;52.722;6.440;2023-08-08T07:41:38;7.13;;;1.65;;
52674;SDS011;38569;52.722;6.440;2023-08-08T07:44:04;7.68;;;2.22;;
52674;SDS011;38569;52.722;6.440;2023-08-08T07:46:30;6.72;;;1.80;;
52674;SDS011;38569;52.722;6.440;2023-08-08T07:48:57;5.45;;;1.25;;
52674;SDS011;38569;52.722;6.440;2023-08-08T07:51:27;5.25;;;1.30;;
52674;SDS011;38569;52.722;6.440;2023-08-08T07:53:53;7.40;;;1.40;;
52674;SDS011;38569;52.722;6.440;2023-08-08T07:56:18;4.88;;;1.23;;
52674;SDS011;38569;52.722;6.440;2023-08-08T07:58:44;3.60;;;1.20;;
52674;SDS011;38569;52.722;6.440;2023-08-08T08:01:10;5.38;;;1.40;;
52674;SDS011;38569;52.722;6.440;2023-08-08T08:03:36;4.75;;;1.55;;
52674;SDS011;38569;52.722;6.440;2023-08-08T08:06:02;4.43;;;2.17;;
52674;SDS011;38569;52.722;6.440;2023-08-08T08:08:28;11.85;;;2.15;;
52674;SDS011;38569;52.722;6.440;2023-08-08T08:10:54;4.30;;;1.40;;
52674;SDS011;38569;52.722;6.440;2023-08-08T08:13:19;4.97;;;1.50;;
52674;SDS011;38569;52.722;6.440;2023-08-08T08:15:45;6.00;;;1.48;;
52674;SDS011;38569;52.722;6.440;2023-08-08T08:18:11;4.03;;;1.65;;
52674;SDS011;38569;52.722;6.440;2023-08-08T08:20:39;6.18;;;1.45;;
52674;SDS011;38569;52.722;6.440;2023-08-08T08:23:05;7.85;;;1.30;;
52674;SDS011;38569;52.722;6.440;2023-08-08T08:25:30;4.28;;;0.98;;
52674;SDS011;38569;52.722;6.440;2023-08-08T08:27:57;9.05;;;1.60;;
52674;SDS011;38569;52.722;6.440;2023-08-08T08:30:22;7.20;;;1.17;;
52674;SDS011;38569;52.722;6.440;2023-08-08T08:32:51;6.82;;;1.67;;
52674;SDS011;38569;52.722;6.440;2023-08-08T08:35:16;5.53;;;2.35;;
52674;SDS011;38569;52.722;6.440;2023-08-08T08:37:42;9.55;;;1.58;;
52674;SDS011;38569;52.722;6.440;2023-08-08T08:40:08;4.55;;;1.35;;
52674;SDS011;38569;52.722;6.440;2023-08-08T08:42:35;4.88;;;1.30;;
52674;SDS011;38569;52.722;6.440;2023-08-08T08:45:02;3.28;;;1.27;;
52674;SDS011;38569;52.722;6.440;2023-08-08T08:47:30;5.28;;;1.52;;
52674;SDS011;38569;52.722;6.440;2023-08-08T08:49:56;5.18;;;2.08;;
52674;SDS011;38569;52.722;6.440;2023-08-08T08:52:23;8.35;;;1.23;;
52674;SDS011;38569;52.722;6.440;2023-08-08T08:54:53;3.45;;;0.88;;
52674;SDS011;38569;52.722;6.440;2023-08-08T08:57:20;3.55;;;1.17;;
52674;SDS011;38569;52.722;6.440;2023-08-08T08:59:46;7.30;;;2.20;;
52674;SDS011;38569;52.722;6.440;2023-08-08T09:02:12;5.32;;;1.10;;
52674;SDS011;38569;52.722;6.440;2023-08-08T09:04:39;6.18;;;1.35;;
52674;SDS011;38569;52.722;6.440;2023-08-08T09:07:06;6.45;;;1.10;;
52674;SDS011;38569;52.722;6.440;2023-08-08T09:09:32;3.63;;;1.20;;
52674;SDS011;38569;52.722;6.440;2023-08-08T09:11:58;5.85;;;1.10;;
52674;SDS011;38569;52.722;6.440;2023-08-08T09:14:24;4.47;;;1.10;;
52674;SDS011;38569;52.722;6.440;2023-08-08T09:16:52;3.47;;;1.10;;
52674;SDS011;38569;52.722;6.440;2023-08-08T09:19:19;3.20;;;0.95;;
52674;SDS011;38569;52.722;6.440;2023-08-08T09:21:49;3.80;;;1.23;;
52674;SDS011;38569;52.722;6.440;2023-08-08T09:24:15;4.15;;;1.25;;
52674;SDS011;38569;52.722;6.440;2023-08-08T09:26:42;6.68;;;1.30;;
52674;SDS011;38569;52.722;6.440;2023-08-08T09:29:08;5.95;;;2.38;;
52674;SDS011;38569;52.722;6.440;2023-08-08T09:31:35;5.30;;;1.27;;
52674;SDS011;38569;52.722;6.440;2023-08-08T09:34:02;6.70;;;1.70;;
52674;SDS011;38569;52.722;6.440;2023-08-08T09:36:28;5.45;;;1.00;;
52674;SDS011;38569;52.722;6.440;2023-08-08T09:38:55;5.10;;;1.50;;
52674;SDS011;38569;52.722;6.440;2023-08-08T09:41:21;7.22;;;1.10;;
52674;SDS011;38569;52.722;6.440;2023-08-08T09:43:49;4.00;;;1.00;;
52674;SDS011;38569;52.722;6.440;2023-08-08T09:46:18;5.70;;;1.10;;
52674;SDS011;38569;52.722;6.440;2023-08-08T09:48:44;4.20;;;1.27;;
52674;SDS011;38569;52.722;6.440;2023-08-08T09:51:11;6.85;;;1.50;;
52674;SDS011;38569;52.722;6.440;2023-08-08T09:53:38;5.57;;;1.45;;
52674;SDS011;38569;52.722;6.440;2023-08-08T09:56:04;5.97;;;1.42;;
52674;SDS011;38569;52.722;6.440;2023-08-08T09:58:31;7.30;;;1.30;;
52674;SDS011;38569;52.722;6.440;2023-08-08T10:00:57;7.10;;;1.33;;
52674;SDS011;38569;52.722;6.440;2023-08-08T10:03:23;4.95;;;1.40;;
52674;SDS011;38569;52.722;6.440;2023-08-08T10:05:51;3.30;;;1.27;;
52674;SDS011;38569;52.722;6.440;2023-08-08T10:08:17;23.92;;;3.42;;
52674;SDS011;38569;52.722;6.440;2023-08-08T10:10:44;3.03;;;1.23;;
52674;SDS011;38569;52.722;6.440;2023-08-08T10:13:22;4.18;;;1.73;;
52674;SDS011;38569;52.722;6.440;2023-08-08T10:15:51;3.97;;;1.30;;
52674;SDS011;38569;52.722;6.440;2023-08-08T10:18:18;7.22;;;1.73;;
52674;SDS011;38569;52.722;6.440;2023-08-08T10:20:47;2.83;;;1.30;;
52674;SDS011;38569;52.722;6.440;2023-08-08T10:23:18;9.68;;;1.42;;
52674;SDS011;38569;52.722;6.440;2023-08-08T10:25:53;2.63;;;1.10;;
52674;SDS011;38569;52.722;6.440;2023-08-08T10:28:20;3.78;;;1.35;;
52674;SDS011;38569;52.722;6.440;2023-08-08T10:30:52;3.38;;;0.93;;
52674;SDS011;38569;52.722;6.440;2023-08-08T10:33:24;8.80;;;1.60;;
52674;SDS011;38569;52.722;6.440;2023-08-08T10:35:56;6.85;;;1.30;;
52674;SDS011;38569;52.722;6.440;2023-08-08T10:38:27;6.45;;;1.45;;
52674;SDS011;38569;52.722;6.440;2023-08-08T10:41:08;4.88;;;1.20;;
52674;SDS011;38569;52.722;6.440;2023-08-08T10:43:35;3.78;;;1.40;;
52674;SDS011;38569;52.722;6.440;2023-08-08T10:46:01;7.70;;;1.90;;
52674;SDS011;38569;52.722;6.440;2023-08-08T10:48:27;4.25;;;1.30;;
52674;SDS011;38569;52.722;6.440;2023-08-08T10:50:59;7.55;;;1.73;;
52674;SDS011;38569;52.722;6.440;2023-08-08T10:53:29;3.37;;;1.60;;
52674;SDS011;38569;52.722;6.440;2023-08-08T10:55:59;4.72;;;1.48;;
52674;SDS011;38569;52.722;6.440;2023-08-08T10:58:36;4.15;;;1.27;;
52674;SDS011;38569;52.722;6.440;2023-08-08T11:01:04;3.78;;;1.30;;
52674;SDS011;38569;52.722;6.440;2023-08-08T11:03:33;5.10;;;1.23;;
52674;SDS011;38569;52.722;6.440;2023-08-08T11:06:01;5.63;;;1.63;;
52674;SDS011;38569;52.722;6.440;2023-08-08T11:08:29;6.15;;;1.55;;
52674;SDS011;38569;52.722;6.440;2023-08-08T11:10:56;8.65;;;1.40;;
52674;SDS011;38569;52.722;6.440;2023-08-08T11:13:22;6.10;;;1.88;;
52674;SDS011;38569;52.722;6.440;2023-08-08T11:15:48;4.13;;;1.63;;
52674;SDS011;38569;52.722;6.440;2023-08-08T11:18:13;5.35;;;1.20;;
52674;SDS011;38569;52.722;6.440;2023-08-08T11:20:39;8.88;;;2.92;;
52674;SDS011;38569;52.722;6.440;2023-08-08T11:23:05;6.45;;;1.98;;
52674;SDS011;38569;52.722;6.440;2023-08-08T11:25:35;8.40;;;2.28;;
52674;SDS011;38569;52.722;6.440;2023-08-08T11:28:01;5.50;;;1.45;;
52674;SDS011;38569;52.722;6.440;2023-08-08T11:30:28;4.68;;;1.67;;
52674;SDS011;38569;52.722;6.440;2023-08-08T11:32:57;4.45;;;1.20;;
52674;SDS011;38569;52.722;6.440;2023-08-08T11:35:23;5.90;;;1.40;;
52674;SDS011;38569;52.722;6.440;2023-08-08T11:37:51;4.63;;;2.00;;
52674;SDS011;38569;52.722;6.440;2023-08-08T11:40:19;3.25;;;1.45;;
52674;SDS011;38569;52.722;6.440;2023-08-08T11:42:47;5.03;;;1.38;;
52674;SDS011;38569;52.722;6.440;2023-08-08T11:45:15;3.78;;;1.40;;
52674;SDS011;38569;52.722;6.440;2023-08-08T11:47:41;5.95;;;1.42;;
52674;SDS011;38569;52.722;6.440;2023-08-08T11:50:08;9.57;;;1.90;;
52674;SDS011;38569;52.722;6.440;2023-08-08T11:52:36;4.40;;;1.85;;
52674;SDS011;38569;52.722;6.440;2023-08-08T11:55:06;6.75;;;2.40;;
52674;SDS011;38569;52.722;6.440;2023-08-08T11:57:33;7.85;;;2.47;;
52674;SDS011;38569;52.722;6.440;2023-08-08T12:00:00;5.93;;;1.60;;
52674;SDS011;38569;52.722;6.440;2023-08-08T12:02:28;6.68;;;1.83;;
52674;SDS011;38569;52.722;6.440;2023-08-08T12:04:53;7.25;;;2.67;;
52674;SDS011;38569;52.722;6.440;2023-08-08T12:07:19;11.93;;;2.60;;
52674;SDS011;38569;52.722;6.440;2023-08-08T12:09:48;7.22;;;2.35;;
52674;SDS011;38569;52.722;6.440;2023-08-08T12:12:13;6.32;;;2.08;;
52674;SDS011;38569;52.722;6.440;2023-08-08T12:14:39;41.30;;;4.78;;
52674;SDS011;38569;52.722;6.440;2023-08-08T12:17:07;6.78;;;2.45;;
52674;SDS011;38569;52.722;6.440;2023-08-08T12:19:34;8.57;;;2.20;;
52674;SDS011;38569;52.722;6.440;2023-08-08T12:22:00;10.48;;;1.85;;
52674;SDS011;38569;52.722;6.440;2023-08-08T12:24:26;7.72;;;2.10;;
52674;SDS011;38569;52.722;6.440;2023-08-08T12:26:52;9.02;;;2.05;;
52674;SDS011;38569;52.722;6.440;2023-08-08T12:29:18;9.32;;;1.83;;
52674;SDS011;38569;52.722;6.440;2023-08-08T12:31:43;9.23;;;2.35;;
52674;SDS011;38569;52.722;6.440;2023-08-08T12:34:09;8.10;;;1.63;;
52674;SDS011;38569;52.722;6.440;2023-08-08T12:36:35;5.20;;;2.10;;
52674;SDS011;38569;52.722;6.440;2023-08-08T12:39:00;3.20;;;1.27;;
52674;SDS011;38569;52.722;6.440;2023-08-08T12:41:26;4.78;;;1.48;;
52674;SDS011;38569;52.722;6.440;2023-08-08T12:43:54;5.55;;;1.80;;
52674;SDS011;38569;52.722;6.440;2023-08-08T12:46:20;9.43;;;1.92;;
52674;SDS011;38569;52.722;6.440;2023-08-08T12:48:46;3.78;;;2.05;;
52674;SDS011;38569;52.722;6.440;2023-08-08T12:51:12;4.38;;;1.55;;
52674;SDS011;38569;52.722;6.440;2023-08-08T12:53:38;5.25;;;1.10;;
52674;SDS011;38569;52.722;6.440;2023-08-08T12:56:04;7.97;;;2.30;;
52674;SDS011;38569;52.722;6.440;2023-08-08T12:58:30;4.70;;;1.63;;
52674;SDS011;38569;52.722;6.440;2023-08-08T13:00:55;4.88;;;1.70;;
52674;SDS011;38569;52.722;6.440;2023-08-08T13:03:21;5.18;;;1.60;;
52674;SDS011;38569;52.722;6.440;2023-08-08T13:05:47;8.02;;;1.65;;
52674;SDS011;38569;52.722;6.440;2023-08-08T13:08:13;3.83;;;1.20;;
52674;SDS011;38569;52.722;6.440;2023-08-08T13:10:39;5.50;;;1.30;;
52674;SDS011;38569;52.722;6.440;2023-08-08T13:13:05;2.80;;;1.48;;
52674;SDS011;38569;52.722;6.440;2023-08-08T13:15:31;5.30;;;1.83;;
52674;SDS011;38569;52.722;6.440;2023-08-08T13:17:56;6.05;;;1.98;;
52674;SDS011;38569;52.722;6.440;2023-08-08T13:20:22;3.13;;;1.25;;
52674;SDS011;38569;52.722;6.440;2023-08-08T13:22:50;2.80;;;1.13;;
52674;SDS011;38569;52.722;6.440;2023-08-08T13:25:16;5.07;;;1.63;;
52674;SDS011;38569;52.722;6.440;2023-08-08T13:27:43;5.57;;;1.83;;
52674;SDS011;38569;52.722;6.440;2023-08-08T13:30:10;7.35;;;1.88;;
52674;SDS011;38569;52.722;6.440;2023-08-08T13:32:37;8.50;;;1.83;;
52674;SDS011;38569;52.722;6.440;2023-08-08T13:35:03;8.27;;;1.60;;
52674;SDS011;38569;52.722;6.440;2023-08-08T13:37:30;5.78;;;1.88;;
52674;SDS011;38569;52.722;6.440;2023-08-08T13:39:55;9.57;;;1.90;;
52674;SDS011;38569;52.722;6.440;2023-08-08T13:42:21;3.95;;;1.63;;
52674;SDS011;38569;52.722;6.440;2023-08-08T13:44:47;5.43;;;1.75;;
52674;SDS011;38569;52.722;6.440;2023-08-08T13:47:12;7.47;;;1.70;;
52674;SDS011;38569;52.722;6.440;2023-08-08T13:49:38;7.43;;;1.95;;
52674;SDS011;38569;52.722;6.440;2023-08-08T13:52:04;4.53;;;1.40;;
52674;SDS011;38569;52.722;6.440;2023-08-08T13:54:30;8.80;;;2.33;;
52674;SDS011;38569;52.722;6.440;2023-08-08T13:56:56;5.55;;;1.98;;
52674;SDS011;38569;52.722;6.440;2023-08-08T13:59:21;3.50;;;1.42;;
52674;SDS011;38569;52.722;6.440;2023-08-08T14:01:47;9.50;;;2.10;;
52674;SDS011;38569;52.722;6.440;2023-08-08T14:04:13;3.90;;;1.38;;
52674;SDS011;38569;52.722;6.440;2023-08-08T14:06:39;4.38;;;1.10;;
52674;SDS011;38569;52.722;6.440;2023-08-08T14:09:04;5.00;;;1.27;;
52674;SDS011;38569;52.722;6.440;2023-08-08T14:11:30;1.90;;;0.90;;
52674;SDS011;38569;52.722;6.440;2023-08-08T14:13:56;4.80;;;1.67;;
52674;SDS011;38569;52.722;6.440;2023-08-08T14:16:22;4.70;;;1.50;;
52674;SDS011;38569;52.722;6.440;2023-08-08T14:18:47;4.07;;;1.10;;
52674;SDS011;38569;52.722;6.440;2023-08-08T14:21:14;6.13;;;1.77;;
52674;SDS011;38569;52.722;6.440;2023-08-08T14:23:40;6.05;;;1.55;;
52674;SDS011;38569;52.722;6.440;2023-08-08T14:26:05;6.50;;;1.55;;
52674;SDS011;38569;52.722;6.440;2023-08-08T14:28:31;4.55;;;1.85;;
52674;SDS011;38569;52.722;6.440;2023-08-08T14:30:57;5.68;;;1.40;;
52674;SDS011;38569;52.722;6.440;2023-08-08T14:33:23;6.15;;;1.45;;
52674;SDS011;38569;52.722;6.440;2023-08-08T14:35:48;4.32;;;1.73;;
52674;SDS011;38569;52.722;6.440;2023-08-08T14:38:14;5.28;;;1.52;;